Aeroporto :
LOGIN :

Iscrizione | Disclaimer

   EN    FR    IT 

 










Sommario :    VFR   VFR Marginale   IFR   IFR Intensivo   IFR Molto Intensivo
Visibilità : 
Base nubi : 
>= 8 km
>= 3000ft
5 / 8 km
1000 / 3000 ft
1500m / 5 km
500 / 1000 ft
800 / 1500m
200 / 500 ft
< 800m
< 200 ft
Simboli :   Temporali  Nebbia  Neve Forte  Precipitazioni Forti  Vento > 20 kt
SIGMETs :   Varie  Temporali  Ghiacco  Turbolenza  Onda orograficha  Ceneri Vulcaniche






- Altitudine del aeroporto : 17 ft
- Codice IATA : GRQ


EHGG - Groningen Eelde

ULTIMO METAR :
  • 220925Z AUTO 23012KT 200V270 9999 SCT016 BKN019 BKN025 18/14 Q1010 NOSIG

METARs OBSOLETI :
  • 220855Z AUTO 25009KT 210V280 9999 BKN016/// OVC020/// 18/14 Q1010 NOSIG
  • 220825Z AUTO 24010KT 210V270 9999 SCT014/// OVC016/// 17/14 Q1010 NOSIG
  • 220755Z AUTO 24008KT 210V280 9999 BKN011 BKN013 OVC017 17/14 Q1010 BECMG BKN020
  • 220725Z AUTO 24008KT 200V270 9999 SCT011 OVC014 17/14 Q1009 BECMG SCT015
  • 220655Z AUTO 23008KT 190V270 9000 SCT009/// BKN010/// 17/15 Q1009 BECMG SCT014
  • 220625Z AUTO 23008KT 200V260 7000 FEW008 SCT009 16/14 Q1009 BECMG 9999 TEMPO BKN011
  • 220555Z AUTO 22007KT 5000 FEW007 SCT008 BKN010 16/14 Q1009 BECMG 9999 NSW TEMPO NSC
  • 220525Z AUTO 21004KT 170V230 3800 BR FEW005/// SCT006/// 14/13 Q1009 BECMG 9999 NSW TEMPO BKN014

TAF TAF EHGG
Valido dal 22 a 06 ore il 23 a 12 ore UTC


220517Z 2206/2312 22007KT 4500 BR SCT040
BECMG 2206/2207 9999 NSW
TEMPO 2206/2208 SCT007 BKN012
BECMG 2207/2210 25012KT
PROB30
TEMPO 2211/2216 7000 -SHRA FEW050TCU
BECMG 2214/2217 28008KT
BECMG 2222/2301 2500 BR MIFG
PROB30 2303/2305 0800 FG BKN003



MetMap, La meteo Aeronautica in un colpo d'occhio ! - Copyright ORBIFLY Dicembre 2007 - Disclaimer

ORBIFLY MET'MAP TEAM :

Programmazione e sviluppo : Alexandra Zaïnal
Concezione : Baudouin d'Aumeries
Supporto tecnico e logistico : Manuel Goepfert
Aiuto : Marc-Olivier Méhu
Aiuto per la traduzione : Arnaldo La Scala




FONTI E CREDITI :

   NOAA